sensor_id;sensor_type;location;lat;lon;timestamp;P1;durP1;ratioP1;P2;durP2;ratioP2
5125;SDS011;63008;53.112;8.896;2023-02-28T00:01:01;8.83;;;6.37;;
5125;SDS011;63008;53.112;8.896;2023-02-28T00:03:02;5.30;;;4.80;;
5125;SDS011;63008;53.112;8.896;2023-02-28T00:05:03;9.43;;;5.30;;
5125;SDS011;63008;53.112;8.896;2023-02-28T00:07:05;11.23;;;5.40;;
5125;SDS011;63008;53.112;8.896;2023-02-28T00:09:06;5.73;;;4.90;;
5125;SDS011;63008;53.112;8.896;2023-02-28T00:11:08;6.80;;;5.13;;
5125;SDS011;63008;53.112;8.896;2023-02-28T00:13:11;7.27;;;5.80;;
5125;SDS011;63008;53.112;8.896;2023-02-28T00:15:12;9.60;;;5.30;;
5125;SDS011;63008;53.112;8.896;2023-02-28T00:17:13;13.50;;;5.87;;
5125;SDS011;63008;53.112;8.896;2023-02-28T00:19:14;9.20;;;4.47;;
5125;SDS011;63008;53.112;8.896;2023-02-28T00:21:15;4.93;;;4.13;;
5125;SDS011;63008;53.112;8.896;2023-02-28T00:23:18;5.67;;;4.80;;
5125;SDS011;63008;53.112;8.896;2023-02-28T00:25:20;9.43;;;5.20;;
5125;SDS011;63008;53.112;8.896;2023-02-28T00:27:23;6.80;;;5.00;;
5125;SDS011;63008;53.112;8.896;2023-02-28T00:29:24;8.97;;;4.97;;
5125;SDS011;63008;53.112;8.896;2023-02-28T00:31:25;9.73;;;5.00;;
5125;SDS011;63008;53.112;8.896;2023-02-28T00:33:26;5.90;;;4.60;;
5125;SDS011;63008;53.112;8.896;2023-02-28T00:35:28;11.33;;;6.13;;
5125;SDS011;63008;53.112;8.896;2023-02-28T00:37:29;8.60;;;5.60;;
5125;SDS011;63008;53.112;8.896;2023-02-28T00:39:30;8.63;;;5.17;;
5125;SDS011;63008;53.112;8.896;2023-02-28T00:41:31;6.30;;;5.03;;
5125;SDS011;63008;53.112;8.896;2023-02-28T00:43:33;6.57;;;4.90;;
5125;SDS011;63008;53.112;8.896;2023-02-28T00:45:35;8.33;;;5.40;;
5125;SDS011;63008;53.112;8.896;2023-02-28T00:47:36;12.53;;;5.30;;
5125;SDS011;63008;53.112;8.896;2023-02-28T00:49:40;10.53;;;5.13;;
5125;SDS011;63008;53.112;8.896;2023-02-28T00:51:41;11.50;;;5.50;;
5125;SDS011;63008;53.112;8.896;2023-02-28T00:53:42;6.20;;;5.20;;
5125;SDS011;63008;53.112;8.896;2023-02-28T00:55:43;7.67;;;4.90;;
5125;SDS011;63008;53.112;8.896;2023-02-28T00:57:44;5.23;;;4.63;;
5125;SDS011;63008;53.112;8.896;2023-02-28T00:59:45;6.60;;;5.00;;
5125;SDS011;63008;53.112;8.896;2023-02-28T01:01:46;9.23;;;5.33;;
5125;SDS011;63008;53.112;8.896;2023-02-28T01:03:47;6.37;;;4.93;;
5125;SDS011;63008;53.112;8.896;2023-02-28T01:05:48;8.13;;;5.00;;
5125;SDS011;63008;53.112;8.896;2023-02-28T01:07:49;8.10;;;5.17;;
5125;SDS011;63008;53.112;8.896;2023-02-28T01:09:50;5.23;;;4.70;;
5125;SDS011;63008;53.112;8.896;2023-02-28T01:11:51;9.00;;;5.20;;
5125;SDS011;63008;53.112;8.896;2023-02-28T01:13:52;12.60;;;5.17;;
5125;SDS011;63008;53.112;8.896;2023-02-28T01:15:55;6.03;;;4.40;;
5125;SDS011;63008;53.112;8.896;2023-02-28T01:17:57;10.77;;;4.70;;
5125;SDS011;63008;53.112;8.896;2023-02-28T01:19:58;8.03;;;4.70;;
5125;SDS011;63008;53.112;8.896;2023-02-28T01:22:03;7.07;;;4.97;;
5125;SDS011;63008;53.112;8.896;2023-02-28T01:24:05;8.77;;;5.47;;
5125;SDS011;63008;53.112;8.896;2023-02-28T01:28:15;6.53;;;5.33;;
5125;SDS011;63008;53.112;8.896;2023-02-28T01:30:17;8.00;;;5.50;;
5125;SDS011;63008;53.112;8.896;2023-02-28T01:32:18;9.03;;;4.80;;
5125;SDS011;63008;53.112;8.896;2023-02-28T01:34:19;11.27;;;5.17;;
5125;SDS011;63008;53.112;8.896;2023-02-28T01:36:21;10.77;;;5.30;;
5125;SDS011;63008;53.112;8.896;2023-02-28T01:38:23;8.03;;;4.73;;
5125;SDS011;63008;53.112;8.896;2023-02-28T01:40:24;12.13;;;5.03;;
5125;SDS011;63008;53.112;8.896;2023-02-28T01:42:25;12.90;;;5.03;;
5125;SDS011;63008;53.112;8.896;2023-02-28T01:47:04;6.60;;;4.97;;
5125;SDS011;63008;53.112;8.896;2023-02-28T01:49:07;13.40;;;5.10;;
5125;SDS011;63008;53.112;8.896;2023-02-28T01:51:15;11.67;;;5.30;;
5125;SDS011;63008;53.112;8.896;2023-02-28T01:53:31;13.67;;;5.23;;
5125;SDS011;63008;53.112;8.896;2023-02-28T01:55:35;6.87;;;4.83;;
5125;SDS011;63008;53.112;8.896;2023-02-28T01:57:38;9.47;;;5.00;;
5125;SDS011;63008;53.112;8.896;2023-02-28T01:59:45;9.10;;;5.17;;
5125;SDS011;63008;53.112;8.896;2023-02-28T02:01:50;6.63;;;4.87;;
5125;SDS011;63008;53.112;8.896;2023-02-28T02:03:53;5.97;;;4.90;;
5125;SDS011;63008;53.112;8.896;2023-02-28T02:05:57;9.93;;;5.10;;
5125;SDS011;63008;53.112;8.896;2023-02-28T02:08:01;11.23;;;5.23;;
5125;SDS011;63008;53.112;8.896;2023-02-28T02:10:12;8.57;;;5.37;;
5125;SDS011;63008;53.112;8.896;2023-02-28T02:12:30;6.00;;;4.30;;
5125;SDS011;63008;53.112;8.896;2023-02-28T02:15:00;8.20;;;4.83;;
5125;SDS011;63008;53.112;8.896;2023-02-28T02:29:09;4.57;;;4.17;;
5125;SDS011;63008;53.112;8.896;2023-02-28T02:31:36;7.20;;;4.20;;
5125;SDS011;63008;53.112;8.896;2023-02-28T02:38:32;5.90;;;4.40;;
5125;SDS011;63008;53.112;8.896;2023-02-28T02:40:43;5.67;;;4.00;;
5125;SDS011;63008;53.112;8.896;2023-02-28T02:43:01;8.33;;;4.60;;
5125;SDS011;63008;53.112;8.896;2023-02-28T02:45:07;3.97;;;3.57;;
5125;SDS011;63008;53.112;8.896;2023-02-28T02:47:24;11.20;;;4.80;;
5125;SDS011;63008;53.112;8.896;2023-02-28T02:49:30;5.93;;;4.33;;
5125;SDS011;63008;53.112;8.896;2023-02-28T02:51:32;5.43;;;3.80;;
5125;SDS011;63008;53.112;8.896;2023-02-28T02:53:36;8.33;;;3.63;;
5125;SDS011;63008;53.112;8.896;2023-02-28T02:55:43;5.23;;;4.17;;
5125;SDS011;63008;53.112;8.896;2023-02-28T02:57:48;5.37;;;4.17;;
5125;SDS011;63008;53.112;8.896;2023-02-28T02:59:53;8.13;;;4.17;;
5125;SDS011;63008;53.112;8.896;2023-02-28T03:01:57;5.87;;;4.00;;
5125;SDS011;63008;53.112;8.896;2023-02-28T03:04:09;5.47;;;3.33;;
5125;SDS011;63008;53.112;8.896;2023-02-28T03:06:19;7.93;;;3.77;;
5125;SDS011;63008;53.112;8.896;2023-02-28T03:08:20;6.80;;;3.90;;
5125;SDS011;63008;53.112;8.896;2023-02-28T03:10:31;6.13;;;3.80;;
5125;SDS011;63008;53.112;8.896;2023-02-28T03:12:47;7.00;;;3.73;;
5125;SDS011;63008;53.112;8.896;2023-02-28T03:15:12;5.10;;;4.13;;
5125;SDS011;63008;53.112;8.896;2023-02-28T03:22:14;5.07;;;4.10;;
5125;SDS011;63008;53.112;8.896;2023-02-28T03:24:37;6.73;;;4.97;;
5125;SDS011;63008;53.112;8.896;2023-02-28T03:26:54;7.83;;;4.63;;
5125;SDS011;63008;53.112;8.896;2023-02-28T03:33:30;9.60;;;4.20;;
5125;SDS011;63008;53.112;8.896;2023-02-28T03:35:41;4.70;;;4.03;;
5125;SDS011;63008;53.112;8.896;2023-02-28T03:37:52;6.47;;;4.63;;
5125;SDS011;63008;53.112;8.896;2023-02-28T03:40:00;7.50;;;4.10;;
5125;SDS011;63008;53.112;8.896;2023-02-28T03:42:14;7.07;;;4.47;;
5125;SDS011;63008;53.112;8.896;2023-02-28T03:44:25;4.80;;;4.30;;
5125;SDS011;63008;53.112;8.896;2023-02-28T03:46:34;6.57;;;4.73;;
5125;SDS011;63008;53.112;8.896;2023-02-28T03:48:40;4.73;;;4.13;;
5125;SDS011;63008;53.112;8.896;2023-02-28T03:50:45;7.13;;;5.20;;
5125;SDS011;63008;53.112;8.896;2023-02-28T03:53:00;8.07;;;5.20;;
5125;SDS011;63008;53.112;8.896;2023-02-28T03:55:09;5.00;;;3.90;;
5125;SDS011;63008;53.112;8.896;2023-02-28T03:57:22;4.63;;;4.10;;
5125;SDS011;63008;53.112;8.896;2023-02-28T03:59:33;7.97;;;4.80;;
5125;SDS011;63008;53.112;8.896;2023-02-28T04:01:42;6.37;;;4.53;;
5125;SDS011;63008;53.112;8.896;2023-02-28T04:03:45;5.43;;;4.60;;
5125;SDS011;63008;53.112;8.896;2023-02-28T04:05:53;6.57;;;4.97;;
5125;SDS011;63008;53.112;8.896;2023-02-28T04:08:05;6.57;;;4.60;;
5125;SDS011;63008;53.112;8.896;2023-02-28T04:10:08;7.80;;;4.47;;
5125;SDS011;63008;53.112;8.896;2023-02-28T04:12:10;6.97;;;4.50;;
5125;SDS011;63008;53.112;8.896;2023-02-28T04:14:11;5.27;;;4.30;;
5125;SDS011;63008;53.112;8.896;2023-02-28T04:16:12;6.67;;;4.70;;
5125;SDS011;63008;53.112;8.896;2023-02-28T04:18:13;5.27;;;4.60;;
5125;SDS011;63008;53.112;8.896;2023-02-28T04:20:14;5.90;;;5.30;;
5125;SDS011;63008;53.112;8.896;2023-02-28T04:22:15;6.73;;;4.60;;
5125;SDS011;63008;53.112;8.896;2023-02-28T04:24:19;9.30;;;4.40;;
5125;SDS011;63008;53.112;8.896;2023-02-28T04:26:24;4.50;;;4.10;;
5125;SDS011;63008;53.112;8.896;2023-02-28T04:28:25;6.43;;;4.23;;
5125;SDS011;63008;53.112;8.896;2023-02-28T04:30:26;7.60;;;4.10;;
5125;SDS011;63008;53.112;8.896;2023-02-28T04:32:27;4.40;;;4.00;;
5125;SDS011;63008;53.112;8.896;2023-02-28T04:34:30;8.53;;;4.73;;
5125;SDS011;63008;53.112;8.896;2023-02-28T04:36:32;6.27;;;4.17;;
5125;SDS011;63008;53.112;8.896;2023-02-28T04:38:34;6.37;;;4.57;;
5125;SDS011;63008;53.112;8.896;2023-02-28T04:40:37;6.40;;;4.20;;
5125;SDS011;63008;53.112;8.896;2023-02-28T04:42:38;11.90;;;4.20;;
5125;SDS011;63008;53.112;8.896;2023-02-28T04:44:39;7.20;;;4.10;;
5125;SDS011;63008;53.112;8.896;2023-02-28T04:46:40;5.13;;;4.53;;
5125;SDS011;63008;53.112;8.896;2023-02-28T04:48:41;4.90;;;3.73;;
5125;SDS011;63008;53.112;8.896;2023-02-28T04:50:44;8.73;;;4.10;;
5125;SDS011;63008;53.112;8.896;2023-02-28T04:52:45;5.80;;;4.37;;
5125;SDS011;63008;53.112;8.896;2023-02-28T04:54:46;6.60;;;4.30;;
5125;SDS011;63008;53.112;8.896;2023-02-28T04:56:47;5.10;;;4.20;;
5125;SDS011;63008;53.112;8.896;2023-02-28T04:58:50;8.30;;;3.70;;
5125;SDS011;63008;53.112;8.896;2023-02-28T05:00:53;4.60;;;4.20;;
5125;SDS011;63008;53.112;8.896;2023-02-28T05:03:01;4.30;;;3.93;;
5125;SDS011;63008;53.112;8.896;2023-02-28T05:05:02;6.37;;;4.53;;
5125;SDS011;63008;53.112;8.896;2023-02-28T05:07:03;8.03;;;5.93;;
5125;SDS011;63008;53.112;8.896;2023-02-28T05:09:04;8.27;;;4.90;;
5125;SDS011;63008;53.112;8.896;2023-02-28T05:11:06;7.30;;;4.40;;
5125;SDS011;63008;53.112;8.896;2023-02-28T05:13:17;5.37;;;4.03;;
5125;SDS011;63008;53.112;8.896;2023-02-28T05:15:17;4.80;;;4.20;;
5125;SDS011;63008;53.112;8.896;2023-02-28T05:17:18;5.00;;;4.20;;
5125;SDS011;63008;53.112;8.896;2023-02-28T05:19:22;5.73;;;4.33;;
5125;SDS011;63008;53.112;8.896;2023-02-28T05:23:26;6.80;;;4.63;;
5125;SDS011;63008;53.112;8.896;2023-02-28T05:25:28;9.03;;;5.00;;
5125;SDS011;63008;53.112;8.896;2023-02-28T05:27:29;7.03;;;4.67;;
5125;SDS011;63008;53.112;8.896;2023-02-28T05:29:30;6.03;;;4.27;;
5125;SDS011;63008;53.112;8.896;2023-02-28T05:31:31;6.60;;;4.70;;
5125;SDS011;63008;53.112;8.896;2023-02-28T05:33:32;5.27;;;4.43;;
5125;SDS011;63008;53.112;8.896;2023-02-28T05:35:33;5.17;;;4.17;;
5125;SDS011;63008;53.112;8.896;2023-02-28T05:37:34;4.53;;;3.83;;
5125;SDS011;63008;53.112;8.896;2023-02-28T05:39:35;5.57;;;4.40;;
5125;SDS011;63008;53.112;8.896;2023-02-28T05:41:36;5.60;;;4.43;;
5125;SDS011;63008;53.112;8.896;2023-02-28T05:43:37;9.43;;;4.03;;
5125;SDS011;63008;53.112;8.896;2023-02-28T05:45:38;4.93;;;4.47;;
5125;SDS011;63008;53.112;8.896;2023-02-28T05:47:39;8.47;;;4.27;;
5125;SDS011;63008;53.112;8.896;2023-02-28T05:49:41;7.30;;;4.73;;
5125;SDS011;63008;53.112;8.896;2023-02-28T05:51:42;4.73;;;4.20;;
5125;SDS011;63008;53.112;8.896;2023-02-28T05:53:43;6.37;;;4.47;;
5125;SDS011;63008;53.112;8.896;2023-02-28T05:55:44;7.57;;;5.20;;
5125;SDS011;63008;53.112;8.896;2023-02-28T05:57:45;5.77;;;4.70;;
5125;SDS011;63008;53.112;8.896;2023-02-28T05:59:46;5.20;;;4.43;;
5125;SDS011;63008;53.112;8.896;2023-02-28T06:01:47;7.37;;;4.50;;
5125;SDS011;63008;53.112;8.896;2023-02-28T06:03:50;5.53;;;4.90;;
5125;SDS011;63008;53.112;8.896;2023-02-28T06:05:51;9.50;;;5.00;;
5125;SDS011;63008;53.112;8.896;2023-02-28T06:07:52;7.80;;;4.83;;
5125;SDS011;63008;53.112;8.896;2023-02-28T06:09:53;7.20;;;5.87;;
5125;SDS011;63008;53.112;8.896;2023-02-28T06:11:57;9.90;;;6.13;;
5125;SDS011;63008;53.112;8.896;2023-02-28T06:13:59;10.17;;;6.20;;
5125;SDS011;63008;53.112;8.896;2023-02-28T06:16:01;8.30;;;6.43;;
5125;SDS011;63008;53.112;8.896;2023-02-28T06:18:02;11.57;;;5.70;;
5125;SDS011;63008;53.112;8.896;2023-02-28T06:20:03;7.97;;;4.93;;
5125;SDS011;63008;53.112;8.896;2023-02-28T06:22:10;6.73;;;4.80;;
5125;SDS011;63008;53.112;8.896;2023-02-28T06:24:11;8.30;;;5.00;;
5125;SDS011;63008;53.112;8.896;2023-02-28T06:26:12;5.80;;;5.10;;
5125;SDS011;63008;53.112;8.896;2023-02-28T06:28:13;5.93;;;4.93;;
5125;SDS011;63008;53.112;8.896;2023-02-28T06:30:14;7.30;;;4.70;;
5125;SDS011;63008;53.112;8.896;2023-02-28T06:32:15;6.60;;;5.13;;
5125;SDS011;63008;53.112;8.896;2023-02-28T06:34:16;6.20;;;4.20;;
5125;SDS011;63008;53.112;8.896;2023-02-28T06:36:17;8.93;;;5.10;;
5125;SDS011;63008;53.112;8.896;2023-02-28T06:38:19;9.03;;;4.40;;
5125;SDS011;63008;53.112;8.896;2023-02-28T06:40:20;5.33;;;4.70;;
5125;SDS011;63008;53.112;8.896;2023-02-28T06:42:22;5.77;;;4.87;;
5125;SDS011;63008;53.112;8.896;2023-02-28T06:44:29;6.40;;;4.10;;
5125;SDS011;63008;53.112;8.896;2023-02-28T06:46:35;5.03;;;3.90;;
5125;SDS011;63008;53.112;8.896;2023-02-28T06:48:36;8.10;;;4.60;;
5125;SDS011;63008;53.112;8.896;2023-02-28T06:50:37;4.73;;;4.33;;
5125;SDS011;63008;53.112;8.896;2023-02-28T06:52:38;4.77;;;4.23;;
5125;SDS011;63008;53.112;8.896;2023-02-28T06:54:39;7.17;;;3.90;;
5125;SDS011;63008;53.112;8.896;2023-02-28T06:56:40;10.17;;;5.33;;
5125;SDS011;63008;53.112;8.896;2023-02-28T06:58:41;6.73;;;5.00;;
5125;SDS011;63008;53.112;8.896;2023-02-28T07:00:49;8.00;;;3.90;;
5125;SDS011;63008;53.112;8.896;2023-02-28T07:02:51;6.40;;;4.80;;
5125;SDS011;63008;53.112;8.896;2023-02-28T07:04:54;6.70;;;5.30;;
5125;SDS011;63008;53.112;8.896;2023-02-28T07:06:55;7.60;;;4.93;;
5125;SDS011;63008;53.112;8.896;2023-02-28T07:08:57;11.27;;;5.43;;
5125;SDS011;63008;53.112;8.896;2023-02-28T07:10:59;8.60;;;4.63;;
5125;SDS011;63008;53.112;8.896;2023-02-28T07:13:00;7.37;;;4.03;;
5125;SDS011;63008;53.112;8.896;2023-02-28T07:15:01;10.50;;;4.70;;
5125;SDS011;63008;53.112;8.896;2023-02-28T07:17:02;7.70;;;4.93;;
5125;SDS011;63008;53.112;8.896;2023-02-28T07:19:03;8.77;;;5.17;;
5125;SDS011;63008;53.112;8.896;2023-02-28T07:21:05;4.87;;;4.20;;
5125;SDS011;63008;53.112;8.896;2023-02-28T07:23:08;5.23;;;4.73;;
5125;SDS011;63008;53.112;8.896;2023-02-28T07:25:09;5.97;;;4.70;;
5125;SDS011;63008;53.112;8.896;2023-02-28T07:27:10;5.93;;;5.33;;
5125;SDS011;63008;53.112;8.896;2023-02-28T07:29:11;7.37;;;4.67;;
5125;SDS011;63008;53.112;8.896;2023-02-28T07:31:13;8.90;;;4.97;;
5125;SDS011;63008;53.112;8.896;2023-02-28T07:33:15;6.70;;;5.70;;
5125;SDS011;63008;53.112;8.896;2023-02-28T07:35:16;5.60;;;4.93;;
5125;SDS011;63008;53.112;8.896;2023-02-28T07:37:17;5.70;;;4.20;;
5125;SDS011;63008;53.112;8.896;2023-02-28T07:39:18;8.43;;;5.20;;
5125;SDS011;63008;53.112;8.896;2023-02-28T07:41:19;10.03;;;5.10;;
5125;SDS011;63008;53.112;8.896;2023-02-28T07:43:21;7.03;;;4.40;;
5125;SDS011;63008;53.112;8.896;2023-02-28T07:45:22;5.60;;;4.43;;
5125;SDS011;63008;53.112;8.896;2023-02-28T07:47:24;7.77;;;5.37;;
5125;SDS011;63008;53.112;8.896;2023-02-28T07:49:25;6.13;;;5.53;;
5125;SDS011;63008;53.112;8.896;2023-02-28T07:51:26;9.43;;;5.53;;
5125;SDS011;63008;53.112;8.896;2023-02-28T07:53:27;9.97;;;6.03;;
5125;SDS011;63008;53.112;8.896;2023-02-28T07:55:28;12.73;;;6.67;;
5125;SDS011;63008;53.112;8.896;2023-02-28T07:57:29;10.33;;;6.10;;
5125;SDS011;63008;53.112;8.896;2023-02-28T07:59:30;11.60;;;5.87;;
5125;SDS011;63008;53.112;8.896;2023-02-28T08:01:31;10.27;;;6.40;;
5125;SDS011;63008;53.112;8.896;2023-02-28T08:03:32;7.33;;;5.47;;
5125;SDS011;63008;53.112;8.896;2023-02-28T08:05:37;10.23;;;5.30;;
5125;SDS011;63008;53.112;8.896;2023-02-28T08:07:39;13.77;;;5.10;;
5125;SDS011;63008;53.112;8.896;2023-02-28T08:09:40;9.20;;;5.50;;
5125;SDS011;63008;53.112;8.896;2023-02-28T08:11:41;8.77;;;5.20;;
5125;SDS011;63008;53.112;8.896;2023-02-28T08:13:42;5.00;;;4.60;;
5125;SDS011;63008;53.112;8.896;2023-02-28T08:15:44;4.60;;;4.17;;
5125;SDS011;63008;53.112;8.896;2023-02-28T08:17:46;7.47;;;4.70;;
5125;SDS011;63008;53.112;8.896;2023-02-28T08:19:47;6.57;;;4.87;;
5125;SDS011;63008;53.112;8.896;2023-02-28T08:21:48;8.17;;;4.63;;
5125;SDS011;63008;53.112;8.896;2023-02-28T08:23:49;7.03;;;4.20;;
5125;SDS011;63008;53.112;8.896;2023-02-28T08:25:54;10.80;;;5.10;;
5125;SDS011;63008;53.112;8.896;2023-02-28T08:27:56;9.10;;;4.10;;
5125;SDS011;63008;53.112;8.896;2023-02-28T08:29:57;5.30;;;3.43;;
5125;SDS011;63008;53.112;8.896;2023-02-28T08:31:58;5.60;;;3.50;;
5125;SDS011;63008;53.112;8.896;2023-02-28T08:33:59;6.00;;;3.53;;
5125;SDS011;63008;53.112;8.896;2023-02-28T08:36:00;3.73;;;3.40;;
5125;SDS011;63008;53.112;8.896;2023-02-28T08:38:01;5.90;;;3.40;;
5125;SDS011;63008;53.112;8.896;2023-02-28T08:40:02;12.03;;;3.10;;
5125;SDS011;63008;53.112;8.896;2023-02-28T08:42:04;5.37;;;3.07;;
5125;SDS011;63008;53.112;8.896;2023-02-28T08:44:05;4.30;;;3.50;;
5125;SDS011;63008;53.112;8.896;2023-02-28T08:46:06;5.13;;;3.00;;
5125;SDS011;63008;53.112;8.896;2023-02-28T08:48:08;5.17;;;2.47;;
5125;SDS011;63008;53.112;8.896;2023-02-28T08:50:09;4.97;;;3.70;;
5125;SDS011;63008;53.112;8.896;2023-02-28T08:52:10;3.50;;;3.20;;
5125;SDS011;63008;53.112;8.896;2023-02-28T08:54:11;3.30;;;3.00;;
5125;SDS011;63008;53.112;8.896;2023-02-28T08:56:13;2.80;;;2.40;;
5125;SDS011;63008;53.112;8.896;2023-02-28T08:58:16;2.70;;;2.20;;
5125;SDS011;63008;53.112;8.896;2023-02-28T09:00:17;4.30;;;2.30;;
5125;SDS011;63008;53.112;8.896;2023-02-28T09:02:18;8.50;;;2.30;;
5125;SDS011;63008;53.112;8.896;2023-02-28T09:04:20;2.67;;;2.37;;
5125;SDS011;63008;53.112;8.896;2023-02-28T09:06:22;4.63;;;1.60;;
5125;SDS011;63008;53.112;8.896;2023-02-28T09:08:24;4.27;;;1.57;;
5125;SDS011;63008;53.112;8.896;2023-02-28T09:10:26;4.63;;;2.13;;
5125;SDS011;63008;53.112;8.896;2023-02-28T09:12:27;4.20;;;2.10;;
5125;SDS011;63008;53.112;8.896;2023-02-28T09:14:33;2.27;;;1.60;;
5125;SDS011;63008;53.112;8.896;2023-02-28T09:16:34;3.20;;;1.50;;
5125;SDS011;63008;53.112;8.896;2023-02-28T09:18:36;1.73;;;1.63;;
5125;SDS011;63008;53.112;8.896;2023-02-28T09:20:38;2.33;;;1.60;;
5125;SDS011;63008;53.112;8.896;2023-02-28T09:22:40;2.20;;;1.97;;
5125;SDS011;63008;53.112;8.896;2023-02-28T09:24:41;2.40;;;1.30;;
5125;SDS011;63008;53.112;8.896;2023-02-28T09:26:42;3.27;;;2.00;;
5125;SDS011;63008;53.112;8.896;2023-02-28T09:28:43;1.60;;;1.50;;
5125;SDS011;63008;53.112;8.896;2023-02-28T09:30:45;3.10;;;1.57;;
5125;SDS011;63008;53.112;8.896;2023-02-28T09:32:47;4.03;;;1.20;;
5125;SDS011;63008;53.112;8.896;2023-02-28T09:34:52;1.67;;;1.13;;
5125;SDS011;63008;53.112;8.896;2023-02-28T09:36:53;0.93;;;0.93;;
5125;SDS011;63008;53.112;8.896;2023-02-28T09:38:55;1.93;;;1.30;;
5125;SDS011;63008;53.112;8.896;2023-02-28T09:40:58;2.00;;;0.97;;
5125;SDS011;63008;53.112;8.896;2023-02-28T09:43:01;1.47;;;1.13;;
5125;SDS011;63008;53.112;8.896;2023-02-28T09:45:03;1.20;;;1.10;;
5125;SDS011;63008;53.112;8.896;2023-02-28T09:47:18;1.13;;;0.73;;
5125;SDS011;63008;53.112;8.896;2023-02-28T09:49:38;1.03;;;1.00;;
5125;SDS011;63008;53.112;8.896;2023-02-28T09:51:51;1.60;;;1.20;;
5125;SDS011;63008;53.112;8.896;2023-02-28T09:54:02;2.17;;;1.13;;
5125;SDS011;63008;53.112;8.896;2023-02-28T09:56:10;1.23;;;1.13;;
5125;SDS011;63008;53.112;8.896;2023-02-28T09:58:18;1.70;;;1.30;;
5125;SDS011;63008;53.112;8.896;2023-02-28T10:00:24;1.30;;;1.20;;
5125;SDS011;63008;53.112;8.896;2023-02-28T10:05:05;2.83;;;1.30;;
5125;SDS011;63008;53.112;8.896;2023-02-28T10:07:16;1.53;;;1.20;;
5125;SDS011;63008;53.112;8.896;2023-02-28T10:09:21;1.83;;;1.20;;
5125;SDS011;63008;53.112;8.896;2023-02-28T10:11:26;1.93;;;1.10;;
5125;SDS011;63008;53.112;8.896;2023-02-28T10:13:35;2.47;;;1.67;;
5125;SDS011;63008;53.112;8.896;2023-02-28T10:15:51;1.57;;;1.40;;
5125;SDS011;63008;53.112;8.896;2023-02-28T10:17:57;1.47;;;1.20;;
5125;SDS011;63008;53.112;8.896;2023-02-28T10:20:04;1.93;;;1.13;;
5125;SDS011;63008;53.112;8.896;2023-02-28T10:22:20;2.50;;;1.10;;
5125;SDS011;63008;53.112;8.896;2023-02-28T10:24:34;2.10;;;1.40;;
5125;SDS011;63008;53.112;8.896;2023-02-28T10:26:46;1.27;;;1.00;;
5125;SDS011;63008;53.112;8.896;2023-02-28T10:28:49;2.20;;;1.00;;
5125;SDS011;63008;53.112;8.896;2023-02-28T10:30:53;1.87;;;1.10;;
5125;SDS011;63008;53.112;8.896;2023-02-28T10:32:55;1.07;;;1.00;;
5125;SDS011;63008;53.112;8.896;2023-02-28T10:34:58;0.93;;;0.73;;
5125;SDS011;63008;53.112;8.896;2023-02-28T10:37:01;1.00;;;0.90;;
5125;SDS011;63008;53.112;8.896;2023-02-28T10:41:43;2.00;;;1.10;;
5125;SDS011;63008;53.112;8.896;2023-02-28T10:43:44;2.00;;;1.27;;
5125;SDS011;63008;53.112;8.896;2023-02-28T10:48:05;1.13;;;1.00;;
5125;SDS011;63008;53.112;8.896;2023-02-28T10:52:44;2.20;;;0.97;;
5125;SDS011;63008;53.112;8.896;2023-02-28T10:54:45;2.63;;;1.40;;
5125;SDS011;63008;53.112;8.896;2023-02-28T10:57:01;1.20;;;1.10;;
5125;SDS011;63008;53.112;8.896;2023-02-28T11:01:12;2.00;;;1.37;;
5125;SDS011;63008;53.112;8.896;2023-02-28T11:03:23;2.40;;;1.23;;
5125;SDS011;63008;53.112;8.896;2023-02-28T11:05:34;4.23;;;1.53;;
5125;SDS011;63008;53.112;8.896;2023-02-28T11:07:36;1.53;;;1.40;;
5125;SDS011;63008;53.112;8.896;2023-02-28T11:09:39;2.30;;;1.70;;
5125;SDS011;63008;53.112;8.896;2023-02-28T11:11:42;1.33;;;1.20;;
5125;SDS011;63008;53.112;8.896;2023-02-28T11:13:45;3.60;;;1.83;;
5125;SDS011;63008;53.112;8.896;2023-02-28T11:15:54;1.73;;;1.63;;
5125;SDS011;63008;53.112;8.896;2023-02-28T11:17:59;1.20;;;1.13;;
5125;SDS011;63008;53.112;8.896;2023-02-28T11:20:04;2.33;;;1.43;;
5125;SDS011;63008;53.112;8.896;2023-02-28T11:22:07;1.80;;;1.67;;
5125;SDS011;63008;53.112;8.896;2023-02-28T11:24:27;2.13;;;1.63;;
5125;SDS011;63008;53.112;8.896;2023-02-28T11:26:36;2.50;;;1.30;;
5125;SDS011;63008;53.112;8.896;2023-02-28T11:28:39;1.33;;;1.23;;
5125;SDS011;63008;53.112;8.896;2023-02-28T11:30:44;1.73;;;1.57;;
5125;SDS011;63008;53.112;8.896;2023-02-28T11:32:48;1.63;;;1.30;;
5125;SDS011;63008;53.112;8.896;2023-02-28T11:37:15;6.00;;;1.07;;
5125;SDS011;63008;53.112;8.896;2023-02-28T11:39:19;1.37;;;1.20;;
5125;SDS011;63008;53.112;8.896;2023-02-28T11:41:24;1.43;;;1.33;;
5125;SDS011;63008;53.112;8.896;2023-02-28T11:46:09;1.47;;;1.00;;
5125;SDS011;63008;53.112;8.896;2023-02-28T11:48:22;1.20;;;1.20;;
5125;SDS011;63008;53.112;8.896;2023-02-28T11:53:02;1.10;;;1.00;;
5125;SDS011;63008;53.112;8.896;2023-02-28T11:55:25;1.20;;;1.10;;
5125;SDS011;63008;53.112;8.896;2023-02-28T12:02:26;2.80;;;1.07;;
5125;SDS011;63008;53.112;8.896;2023-02-28T12:04:52;1.57;;;1.40;;
5125;SDS011;63008;53.112;8.896;2023-02-28T12:07:18;1.83;;;1.40;;
5125;SDS011;63008;53.112;8.896;2023-02-28T12:11:58;4.67;;;1.10;;
5125;SDS011;63008;53.112;8.896;2023-02-28T12:14:25;1.03;;;0.93;;
5125;SDS011;63008;53.112;8.896;2023-02-28T12:16:54;1.30;;;1.20;;
5125;SDS011;63008;53.112;8.896;2023-02-28T12:19:23;1.10;;;1.10;;
5125;SDS011;63008;53.112;8.896;2023-02-28T12:24:05;2.20;;;1.17;;
5125;SDS011;63008;53.112;8.896;2023-02-28T12:26:40;1.63;;;1.50;;
5125;SDS011;63008;53.112;8.896;2023-02-28T12:28:45;1.63;;;1.20;;
5125;SDS011;63008;53.112;8.896;2023-02-28T12:30:56;0.83;;;0.83;;
5125;SDS011;63008;53.112;8.896;2023-02-28T12:33:06;2.20;;;1.13;;
5125;SDS011;63008;53.112;8.896;2023-02-28T12:37:13;1.23;;;1.10;;
5125;SDS011;63008;53.112;8.896;2023-02-28T12:39:26;1.47;;;1.00;;
5125;SDS011;63008;53.112;8.896;2023-02-28T12:41:36;1.17;;;1.00;;
5125;SDS011;63008;53.112;8.896;2023-02-28T12:44:06;0.97;;;0.97;;
5125;SDS011;63008;53.112;8.896;2023-02-28T12:46:22;2.47;;;1.03;;
5125;SDS011;63008;53.112;8.896;2023-02-28T12:48:36;1.33;;;1.23;;
5125;SDS011;63008;53.112;8.896;2023-02-28T12:50:41;2.00;;;1.00;;
5125;SDS011;63008;53.112;8.896;2023-02-28T12:52:47;1.93;;;1.40;;
5125;SDS011;63008;53.112;8.896;2023-02-28T12:55:03;1.33;;;1.23;;
5125;SDS011;63008;53.112;8.896;2023-02-28T12:58:20;2.27;;;1.37;;
5125;SDS011;63008;53.112;8.896;2023-02-28T13:00:15;1.20;;;1.20;;
5125;SDS011;63008;53.112;8.896;2023-02-28T13:04:52;1.40;;;1.30;;
5125;SDS011;63008;53.112;8.896;2023-02-28T13:07:08;3.37;;;1.60;;
5125;SDS011;63008;53.112;8.896;2023-02-28T13:09:14;1.10;;;1.00;;
5125;SDS011;63008;53.112;8.896;2023-02-28T13:11:32;1.23;;;1.10;;
5125;SDS011;63008;53.112;8.896;2023-02-28T13:13:41;1.63;;;1.00;;
5125;SDS011;63008;53.112;8.896;2023-02-28T13:15:59;1.37;;;1.27;;
5125;SDS011;63008;53.112;8.896;2023-02-28T13:18:05;1.20;;;1.10;;
5125;SDS011;63008;53.112;8.896;2023-02-28T13:20:16;1.27;;;1.20;;
5125;SDS011;63008;53.112;8.896;2023-02-28T13:24:48;1.40;;;1.30;;
5125;SDS011;63008;53.112;8.896;2023-02-28T13:33:17;1.57;;;1.20;;
5125;SDS011;63008;53.112;8.896;2023-02-28T13:35:34;1.40;;;1.07;;
5125;SDS011;63008;53.112;8.896;2023-02-28T13:37:41;1.03;;;0.93;;
5125;SDS011;63008;53.112;8.896;2023-02-28T13:39:46;2.40;;;1.23;;
5125;SDS011;63008;53.112;8.896;2023-02-28T13:41:54;1.00;;;0.90;;
5125;SDS011;63008;53.112;8.896;2023-02-28T13:44:05;1.33;;;1.20;;
5125;SDS011;63008;53.112;8.896;2023-02-28T13:46:12;1.30;;;1.10;;
5125;SDS011;63008;53.112;8.896;2023-02-28T13:48:20;1.40;;;1.23;;
5125;SDS011;63008;53.112;8.896;2023-02-28T13:50:35;2.00;;;1.00;;
5125;SDS011;63008;53.112;8.896;2023-02-28T13:52:41;1.37;;;1.10;;
5125;SDS011;63008;53.112;8.896;2023-02-28T13:57:23;1.53;;;1.00;;
5125;SDS011;63008;53.112;8.896;2023-02-28T13:59:50;1.40;;;1.40;;
5125;SDS011;63008;53.112;8.896;2023-02-28T14:06:58;0.90;;;0.90;;
5125;SDS011;63008;53.112;8.896;2023-02-28T14:09:06;1.37;;;1.27;;